sensor_id;sensor_type;location;lat;lon;timestamp;pressure;altitude;pressure_sealevel;temperature;humidity
47726;BME280;33483;48.294;16.388;2022-12-29T00:00:24;99825.56;;;-1.33;100.00
47726;BME280;33483;48.294;16.388;2022-12-29T00:03:11;99826.28;;;-1.32;100.00
47726;BME280;33483;48.294;16.388;2022-12-29T00:05:43;99823.25;;;-1.34;100.00
47726;BME280;33483;48.294;16.388;2022-12-29T00:08:10;99818.34;;;-1.27;100.00
47726;BME280;33483;48.294;16.388;2022-12-29T00:10:37;99817.56;;;-1.27;100.00
47726;BME280;33483;48.294;16.388;2022-12-29T00:13:05;99816.41;;;-1.39;100.00
47726;BME280;33483;48.294;16.388;2022-12-29T00:15:51;99835.34;;;-1.35;100.00
47726;BME280;33483;48.294;16.388;2022-12-29T00:18:18;99825.66;;;-1.36;100.00
47726;BME280;33483;48.294;16.388;2022-12-29T00:20:48;99826.31;;;-1.45;100.00
47726;BME280;33483;48.294;16.388;2022-12-29T00:23:36;99826.75;;;-1.46;100.00
47726;BME280;33483;48.294;16.388;2022-12-29T00:26:23;99817.00;;;-1.56;100.00
47726;BME280;33483;48.294;16.388;2022-12-29T00:29:09;99826.72;;;-1.68;100.00
47726;BME280;33483;48.294;16.388;2022-12-29T00:31:55;99827.78;;;-1.65;100.00
47726;BME280;33483;48.294;16.388;2022-12-29T00:34:42;99832.03;;;-1.64;100.00
47726;BME280;33483;48.294;16.388;2022-12-29T00:37:27;99826.19;;;-1.75;100.00
47726;BME280;33483;48.294;16.388;2022-12-29T00:40:15;99835.31;;;-1.82;100.00
47726;BME280;33483;48.294;16.388;2022-12-29T00:43:05;99821.84;;;-1.85;100.00
47726;BME280;33483;48.294;16.388;2022-12-29T00:45:51;99822.19;;;-1.83;100.00
47726;BME280;33483;48.294;16.388;2022-12-29T00:48:18;99822.56;;;-1.72;100.00
47726;BME280;33483;48.294;16.388;2022-12-29T00:51:06;99824.44;;;-1.69;100.00
47726;BME280;33483;48.294;16.388;2022-12-29T00:53:34;99835.19;;;-1.66;100.00
47726;BME280;33483;48.294;16.388;2022-12-29T00:56:01;99830.72;;;-1.72;100.00
47726;BME280;33483;48.294;16.388;2022-12-29T00:58:29;99836.28;;;-1.76;100.00
47726;BME280;33483;48.294;16.388;2022-12-29T01:01:05;99840.09;;;-1.73;100.00
47726;BME280;33483;48.294;16.388;2022-12-29T01:03:36;99837.94;;;-1.78;100.00
47726;BME280;33483;48.294;16.388;2022-12-29T01:06:07;99838.03;;;-1.82;100.00
47726;BME280;33483;48.294;16.388;2022-12-29T01:08:36;99846.06;;;-1.78;100.00
47726;BME280;33483;48.294;16.388;2022-12-29T01:11:06;99845.09;;;-1.84;100.00
47726;BME280;33483;48.294;16.388;2022-12-29T01:13:35;99845.75;;;-1.93;100.00
47726;BME280;33483;48.294;16.388;2022-12-29T01:16:05;99848.69;;;-2.00;100.00
47726;BME280;33483;48.294;16.388;2022-12-29T01:18:34;99843.25;;;-2.00;100.00
47726;BME280;33483;48.294;16.388;2022-12-29T01:21:05;99841.84;;;-2.04;100.00
47726;BME280;33483;48.294;16.388;2022-12-29T01:23:33;99843.38;;;-2.03;100.00
47726;BME280;33483;48.294;16.388;2022-12-29T01:26:11;99841.53;;;-2.06;100.00
47726;BME280;33483;48.294;16.388;2022-12-29T01:28:38;99848.13;;;-2.07;100.00
47726;BME280;33483;48.294;16.388;2022-12-29T01:31:11;99851.38;;;-2.12;100.00
47726;BME280;33483;48.294;16.388;2022-12-29T01:33:39;99845.13;;;-2.09;100.00
47726;BME280;33483;48.294;16.388;2022-12-29T01:36:09;99847.06;;;-2.10;100.00
47726;BME280;33483;48.294;16.388;2022-12-29T01:38:39;99844.91;;;-2.02;100.00
47726;BME280;33483;48.294;16.388;2022-12-29T01:41:11;99858.03;;;-2.01;100.00
47726;BME280;33483;48.294;16.388;2022-12-29T01:43:45;99851.19;;;-2.05;100.00
47726;BME280;33483;48.294;16.388;2022-12-29T01:46:36;99851.72;;;-2.10;100.00
47726;BME280;33483;48.294;16.388;2022-12-29T01:49:19;99847.06;;;-2.22;100.00
47726;BME280;33483;48.294;16.388;2022-12-29T01:54:20;99825.97;;;-2.44;100.00
47726;BME280;33483;48.294;16.388;2022-12-29T01:56:51;99820.75;;;-2.51;100.00
47726;BME280;33483;48.294;16.388;2022-12-29T01:59:24;99813.16;;;-2.56;100.00
47726;BME280;33483;48.294;16.388;2022-12-29T02:01:53;99810.09;;;-2.58;100.00
47726;BME280;33483;48.294;16.388;2022-12-29T02:04:23;99808.69;;;-2.62;100.00
47726;BME280;33483;48.294;16.388;2022-12-29T02:07:03;99811.84;;;-2.64;100.00
47726;BME280;33483;48.294;16.388;2022-12-29T02:09:34;99806.84;;;-2.65;100.00
47726;BME280;33483;48.294;16.388;2022-12-29T02:12:01;99801.72;;;-2.63;100.00
47726;BME280;33483;48.294;16.388;2022-12-29T02:14:29;99802.94;;;-2.64;100.00
47726;BME280;33483;48.294;16.388;2022-12-29T02:22:48;99792.28;;;-2.71;100.00
47726;BME280;33483;48.294;16.388;2022-12-29T02:37:03;99775.56;;;-2.82;100.00
47726;BME280;33483;48.294;16.388;2022-12-29T02:42:34;99774.47;;;-2.85;100.00
47726;BME280;33483;48.294;16.388;2022-12-29T02:45:07;99771.44;;;-2.87;100.00
47726;BME280;33483;48.294;16.388;2022-12-29T02:51:26;99768.63;;;-2.83;100.00
47726;BME280;33483;48.294;16.388;2022-12-29T02:53:57;99776.44;;;-2.85;100.00
47726;BME280;33483;48.294;16.388;2022-12-29T02:56:44;99769.94;;;-2.88;100.00
47726;BME280;33483;48.294;16.388;2022-12-29T02:59:11;99766.88;;;-2.90;100.00
47726;BME280;33483;48.294;16.388;2022-12-29T03:04:54;99774.25;;;-2.90;100.00
47726;BME280;33483;48.294;16.388;2022-12-29T03:07:55;99783.50;;;-2.88;100.00
47726;BME280;33483;48.294;16.388;2022-12-29T03:13:00;99778.38;;;-2.86;100.00
47726;BME280;33483;48.294;16.388;2022-12-29T03:15:59;99777.19;;;-2.85;100.00
47726;BME280;33483;48.294;16.388;2022-12-29T03:24:23;99788.91;;;-2.75;100.00
47726;BME280;33483;48.294;16.388;2022-12-29T03:26:55;99772.63;;;-2.75;100.00
47726;BME280;33483;48.294;16.388;2022-12-29T03:29:29;99777.31;;;-2.76;100.00
47726;BME280;33483;48.294;16.388;2022-12-29T03:31:59;99774.19;;;-2.74;100.00
47726;BME280;33483;48.294;16.388;2022-12-29T03:34:28;99777.75;;;-2.65;100.00
47726;BME280;33483;48.294;16.388;2022-12-29T03:37:06;99781.47;;;-2.59;100.00
47726;BME280;33483;48.294;16.388;2022-12-29T03:39:37;99782.13;;;-2.55;100.00
47726;BME280;33483;48.294;16.388;2022-12-29T03:42:13;99784.63;;;-2.48;100.00
47726;BME280;33483;48.294;16.388;2022-12-29T03:44:45;99781.69;;;-2.53;100.00
47726;BME280;33483;48.294;16.388;2022-12-29T03:47:14;99786.78;;;-2.55;100.00
47726;BME280;33483;48.294;16.388;2022-12-29T03:49:44;99781.47;;;-2.59;100.00
47726;BME280;33483;48.294;16.388;2022-12-29T03:52:12;99783.41;;;-2.59;100.00
47726;BME280;33483;48.294;16.388;2022-12-29T03:54:43;99786.88;;;-2.59;100.00
47726;BME280;33483;48.294;16.388;2022-12-29T03:57:11;99774.19;;;-2.62;100.00
47726;BME280;33483;48.294;16.388;2022-12-29T03:59:55;99776.91;;;-2.62;100.00
47726;BME280;33483;48.294;16.388;2022-12-29T04:02:22;99773.88;;;-2.64;100.00
47726;BME280;33483;48.294;16.388;2022-12-29T04:04:54;99776.59;;;-2.64;100.00
47726;BME280;33483;48.294;16.388;2022-12-29T04:07:24;99776.91;;;-2.62;100.00
47726;BME280;33483;48.294;16.388;2022-12-29T04:09:53;99773.00;;;-2.61;100.00
47726;BME280;33483;48.294;16.388;2022-12-29T04:12:23;99769.06;;;-2.60;100.00
47726;BME280;33483;48.294;16.388;2022-12-29T04:14:50;99776.69;;;-2.55;100.00
47726;BME280;33483;48.294;16.388;2022-12-29T04:17:17;99774.94;;;-2.49;100.00
47726;BME280;33483;48.294;16.388;2022-12-29T04:19:51;99774.41;;;-2.44;100.00
47726;BME280;33483;48.294;16.388;2022-12-29T04:22:38;99778.97;;;-2.41;100.00
47726;BME280;33483;48.294;16.388;2022-12-29T04:25:06;99781.78;;;-2.32;100.00
47726;BME280;33483;48.294;16.388;2022-12-29T04:27:33;99784.72;;;-2.26;100.00
47726;BME280;33483;48.294;16.388;2022-12-29T04:30:37;99784.50;;;-2.32;100.00
47726;BME280;33483;48.294;16.388;2022-12-29T04:33:25;99795.47;;;-2.35;100.00
47726;BME280;33483;48.294;16.388;2022-12-29T04:35:53;99789.09;;;-2.28;100.00
47726;BME280;33483;48.294;16.388;2022-12-29T04:38:23;99790.50;;;-2.24;100.00
47726;BME280;33483;48.294;16.388;2022-12-29T04:40:52;99789.38;;;-2.27;100.00
47726;BME280;33483;48.294;16.388;2022-12-29T04:43:22;99796.47;;;-2.16;100.00
47726;BME280;33483;48.294;16.388;2022-12-29T04:46:12;99796.97;;;-2.09;100.00
47726;BME280;33483;48.294;16.388;2022-12-29T04:48:55;99792.66;;;-1.94;100.00
47726;BME280;33483;48.294;16.388;2022-12-29T04:51:54;99791.66;;;-1.87;100.00
47726;BME280;33483;48.294;16.388;2022-12-29T04:54:23;99788.59;;;-1.89;100.00
47726;BME280;33483;48.294;16.388;2022-12-29T04:56:58;99793.16;;;-1.86;100.00
47726;BME280;33483;48.294;16.388;2022-12-29T04:59:26;99797.53;;;-1.89;100.00
47726;BME280;33483;48.294;16.388;2022-12-29T05:01:57;99795.66;;;-1.79;100.00
47726;BME280;33483;48.294;16.388;2022-12-29T05:04:24;99795.75;;;-1.70;100.00
47726;BME280;33483;48.294;16.388;2022-12-29T05:06:52;99797.03;;;-1.62;100.00
47726;BME280;33483;48.294;16.388;2022-12-29T05:09:19;99788.44;;;-1.61;100.00
47726;BME280;33483;48.294;16.388;2022-12-29T05:11:47;99788.66;;;-1.55;100.00
47726;BME280;33483;48.294;16.388;2022-12-29T05:14:14;99795.81;;;-1.49;100.00
47726;BME280;33483;48.294;16.388;2022-12-29T05:16:42;99791.63;;;-1.41;100.00
47726;BME280;33483;48.294;16.388;2022-12-29T05:19:09;99789.13;;;-1.35;100.00
47726;BME280;33483;48.294;16.388;2022-12-29T05:21:37;99792.38;;;-1.28;100.00
47726;BME280;33483;48.294;16.388;2022-12-29T05:24:05;99788.75;;;-1.25;100.00
47726;BME280;33483;48.294;16.388;2022-12-29T05:26:32;99787.13;;;-1.22;100.00
47726;BME280;33483;48.294;16.388;2022-12-29T05:29:22;99788.19;;;-1.20;100.00
47726;BME280;33483;48.294;16.388;2022-12-29T05:31:50;99791.66;;;-1.19;100.00
47726;BME280;33483;48.294;16.388;2022-12-29T05:34:18;99784.13;;;-1.15;100.00
47726;BME280;33483;48.294;16.388;2022-12-29T05:36:46;99790.84;;;-1.07;100.00
47726;BME280;33483;48.294;16.388;2022-12-29T05:39:14;99792.03;;;-1.08;100.00
47726;BME280;33483;48.294;16.388;2022-12-29T05:41:47;99789.50;;;-1.02;100.00
47726;BME280;33483;48.294;16.388;2022-12-29T05:44:15;99789.38;;;-0.99;100.00
47726;BME280;33483;48.294;16.388;2022-12-29T05:46:50;99796.84;;;-0.90;100.00
47726;BME280;33483;48.294;16.388;2022-12-29T05:49:32;99792.09;;;-0.77;100.00
47726;BME280;33483;48.294;16.388;2022-12-29T05:52:07;99788.81;;;-0.72;100.00
47726;BME280;33483;48.294;16.388;2022-12-29T05:54:34;99796.19;;;-0.73;100.00
47726;BME280;33483;48.294;16.388;2022-12-29T05:57:08;99794.50;;;-0.79;100.00
47726;BME280;33483;48.294;16.388;2022-12-29T05:59:36;99784.97;;;-0.84;100.00
47726;BME280;33483;48.294;16.388;2022-12-29T06:02:05;99789.78;;;-0.88;100.00
47726;BME280;33483;48.294;16.388;2022-12-29T06:04:33;99782.19;;;-0.93;100.00
47726;BME280;33483;48.294;16.388;2022-12-29T06:07:01;99783.69;;;-0.92;100.00
47726;BME280;33483;48.294;16.388;2022-12-29T06:09:38;99794.56;;;-0.92;100.00
47726;BME280;33483;48.294;16.388;2022-12-29T06:12:07;99800.00;;;-0.92;100.00
47726;BME280;33483;48.294;16.388;2022-12-29T06:14:35;99796.09;;;-0.91;100.00
47726;BME280;33483;48.294;16.388;2022-12-29T06:17:04;99788.25;;;-0.89;100.00
47726;BME280;33483;48.294;16.388;2022-12-29T06:19:32;99791.28;;;-0.87;100.00
47726;BME280;33483;48.294;16.388;2022-12-29T06:22:01;99790.28;;;-0.80;100.00
47726;BME280;33483;48.294;16.388;2022-12-29T06:24:32;99786.59;;;-0.65;100.00
47726;BME280;33483;48.294;16.388;2022-12-29T06:26:59;99786.31;;;-0.58;100.00
47726;BME280;33483;48.294;16.388;2022-12-29T06:29:31;99793.16;;;-0.53;100.00
47726;BME280;33483;48.294;16.388;2022-12-29T06:31:59;99793.31;;;-0.48;100.00
47726;BME280;33483;48.294;16.388;2022-12-29T06:34:28;99798.81;;;-0.39;100.00
47726;BME280;33483;48.294;16.388;2022-12-29T06:36:55;99794.88;;;-0.38;100.00
47726;BME280;33483;48.294;16.388;2022-12-29T06:39:22;99804.00;;;-0.32;100.00
47726;BME280;33483;48.294;16.388;2022-12-29T06:42:19;99809.31;;;-0.28;100.00
47726;BME280;33483;48.294;16.388;2022-12-29T06:44:55;99808.84;;;-0.27;100.00
47726;BME280;33483;48.294;16.388;2022-12-29T06:47:26;99804.19;;;-0.17;100.00
47726;BME280;33483;48.294;16.388;2022-12-29T06:49:55;99808.63;;;-0.11;100.00
47726;BME280;33483;48.294;16.388;2022-12-29T06:52:23;99818.63;;;-0.08;100.00
47726;BME280;33483;48.294;16.388;2022-12-29T06:54:51;99818.31;;;-0.10;100.00
47726;BME280;33483;48.294;16.388;2022-12-29T06:57:18;99832.56;;;-0.06;100.00
47726;BME280;33483;48.294;16.388;2022-12-29T06:59:45;99810.31;;;-0.04;100.00
47726;BME280;33483;48.294;16.388;2022-12-29T07:02:13;99813.47;;;-0.06;100.00
47726;BME280;33483;48.294;16.388;2022-12-29T07:04:46;99816.53;;;-0.04;100.00
47726;BME280;33483;48.294;16.388;2022-12-29T07:07:14;99819.84;;;0.00;100.00
47726;BME280;33483;48.294;16.388;2022-12-29T07:09:41;99821.38;;;0.02;100.00
47726;BME280;33483;48.294;16.388;2022-12-29T07:12:08;99820.03;;;0.06;100.00
47726;BME280;33483;48.294;16.388;2022-12-29T07:14:36;99823.81;;;0.09;100.00
47726;BME280;33483;48.294;16.388;2022-12-29T07:17:09;99819.75;;;0.13;100.00
47726;BME280;33483;48.294;16.388;2022-12-29T07:19:39;99810.81;;;0.13;100.00
47726;BME280;33483;48.294;16.388;2022-12-29T07:22:06;99819.28;;;0.15;100.00
47726;BME280;33483;48.294;16.388;2022-12-29T07:24:34;99814.91;;;0.17;100.00
47726;BME280;33483;48.294;16.388;2022-12-29T07:27:02;99815.69;;;0.27;100.00
47726;BME280;33483;48.294;16.388;2022-12-29T07:29:29;99810.84;;;0.31;100.00
47726;BME280;33483;48.294;16.388;2022-12-29T07:31:57;99806.44;;;0.33;100.00
47726;BME280;33483;48.294;16.388;2022-12-29T07:34:24;99803.75;;;0.42;100.00
47726;BME280;33483;48.294;16.388;2022-12-29T07:36:51;99809.19;;;0.42;100.00
47726;BME280;33483;48.294;16.388;2022-12-29T07:39:19;99812.41;;;0.50;100.00
47726;BME280;33483;48.294;16.388;2022-12-29T07:41:47;99806.94;;;0.50;100.00
47726;BME280;33483;48.294;16.388;2022-12-29T07:44:17;99809.06;;;0.55;100.00
47726;BME280;33483;48.294;16.388;2022-12-29T07:47:04;99805.28;;;0.61;100.00
47726;BME280;33483;48.294;16.388;2022-12-29T07:49:31;99816.50;;;0.63;100.00
47726;BME280;33483;48.294;16.388;2022-12-29T07:52:01;99812.13;;;0.66;100.00
47726;BME280;33483;48.294;16.388;2022-12-29T07:54:28;99824.06;;;0.68;100.00
47726;BME280;33483;48.294;16.388;2022-12-29T07:56:55;99822.88;;;0.69;100.00
47726;BME280;33483;48.294;16.388;2022-12-29T07:59:24;99814.56;;;0.73;100.00
47726;BME280;33483;48.294;16.388;2022-12-29T08:01:52;99810.28;;;0.72;100.00
47726;BME280;33483;48.294;16.388;2022-12-29T08:04:19;99810.16;;;0.75;100.00
47726;BME280;33483;48.294;16.388;2022-12-29T08:06:47;99814.56;;;0.82;100.00
47726;BME280;33483;48.294;16.388;2022-12-29T08:09:14;99817.13;;;0.85;100.00
47726;BME280;33483;48.294;16.388;2022-12-29T08:11:48;99813.66;;;0.85;100.00
47726;BME280;33483;48.294;16.388;2022-12-29T08:14:15;99815.47;;;0.88;100.00
47726;BME280;33483;48.294;16.388;2022-12-29T08:16:43;99815.59;;;0.84;100.00
47726;BME280;33483;48.294;16.388;2022-12-29T08:19:11;99809.22;;;0.87;100.00
47726;BME280;33483;48.294;16.388;2022-12-29T08:21:39;99810.75;;;0.88;100.00
47726;BME280;33483;48.294;16.388;2022-12-29T08:24:07;99821.22;;;0.90;100.00
47726;BME280;33483;48.294;16.388;2022-12-29T08:26:35;99816.84;;;0.83;100.00
47726;BME280;33483;48.294;16.388;2022-12-29T08:29:02;99821.06;;;0.84;100.00
47726;BME280;33483;48.294;16.388;2022-12-29T08:31:31;99825.03;;;0.83;100.00
47726;BME280;33483;48.294;16.388;2022-12-29T08:33:59;99822.91;;;0.78;100.00
47726;BME280;33483;48.294;16.388;2022-12-29T08:36:27;99822.75;;;0.82;100.00
47726;BME280;33483;48.294;16.388;2022-12-29T08:38:54;99820.47;;;0.71;100.00
47726;BME280;33483;48.294;16.388;2022-12-29T08:41:22;99812.13;;;0.75;100.00
47726;BME280;33483;48.294;16.388;2022-12-29T08:43:49;99819.72;;;0.80;100.00
47726;BME280;33483;48.294;16.388;2022-12-29T08:46:17;99823.63;;;0.79;100.00
47726;BME280;33483;48.294;16.388;2022-12-29T08:48:44;99821.06;;;0.84;100.00
47726;BME280;33483;48.294;16.388;2022-12-29T08:51:14;99810.00;;;0.79;100.00
47726;BME280;33483;48.294;16.388;2022-12-29T08:53:47;99806.06;;;0.80;100.00
47726;BME280;33483;48.294;16.388;2022-12-29T08:56:17;99799.69;;;0.74;100.00
47726;BME280;33483;48.294;16.388;2022-12-29T08:58:50;99804.69;;;0.66;100.00
47726;BME280;33483;48.294;16.388;2022-12-29T09:01:18;99810.75;;;0.70;100.00
47726;BME280;33483;48.294;16.388;2022-12-29T09:03:46;99803.66;;;0.73;100.00
47726;BME280;33483;48.294;16.388;2022-12-29T09:06:34;99803.34;;;0.80;100.00
47726;BME280;33483;48.294;16.388;2022-12-29T09:09:06;99813.03;;;0.81;100.00
47726;BME280;33483;48.294;16.388;2022-12-29T09:11:36;99806.81;;;0.89;100.00
47726;BME280;33483;48.294;16.388;2022-12-29T09:14:03;99808.50;;;0.87;100.00
47726;BME280;33483;48.294;16.388;2022-12-29T09:16:31;99803.66;;;0.82;100.00
47726;BME280;33483;48.294;16.388;2022-12-29T09:18:59;99795.75;;;0.84;100.00
47726;BME280;33483;48.294;16.388;2022-12-29T09:21:27;99790.28;;;0.84;100.00
47726;BME280;33483;48.294;16.388;2022-12-29T09:23:54;99800.00;;;0.85;100.00
47726;BME280;33483;48.294;16.388;2022-12-29T09:26:22;99792.13;;;0.78;100.00
47726;BME280;33483;48.294;16.388;2022-12-29T09:28:49;99787.88;;;0.68;100.00
47726;BME280;33483;48.294;16.388;2022-12-29T09:31:17;99785.75;;;0.72;100.00
47726;BME280;33483;48.294;16.388;2022-12-29T09:33:44;99778.16;;;0.67;100.00
47726;BME280;33483;48.294;16.388;2022-12-29T09:36:14;99788.47;;;0.63;100.00
47726;BME280;33483;48.294;16.388;2022-12-29T09:38:41;99788.31;;;0.66;100.00
47726;BME280;33483;48.294;16.388;2022-12-29T09:41:26;99783.78;;;0.72;100.00
47726;BME280;33483;48.294;16.388;2022-12-29T09:44:16;99785.44;;;0.79;100.00
47726;BME280;33483;48.294;16.388;2022-12-29T09:46:50;99776.06;;;0.80;100.00
47726;BME280;33483;48.294;16.388;2022-12-29T09:52:11;99777.72;;;0.86;100.00
47726;BME280;33483;48.294;16.388;2022-12-29T09:57:29;99785.13;;;0.86;100.00
47726;BME280;33483;48.294;16.388;2022-12-29T10:00:02;99780.28;;;0.90;100.00
47726;BME280;33483;48.294;16.388;2022-12-29T10:02:42;99773.50;;;0.85;100.00
47726;BME280;33483;48.294;16.388;2022-12-29T10:10:44;99776.66;;;0.93;100.00
47726;BME280;33483;48.294;16.388;2022-12-29T10:13:20;99782.09;;;0.93;100.00
47726;BME280;33483;48.294;16.388;2022-12-29T10:21:28;99777.88;;;0.92;100.00
47726;BME280;33483;48.294;16.388;2022-12-29T10:24:04;99775.59;;;0.90;100.00
47726;BME280;33483;48.294;16.388;2022-12-29T10:26:39;99767.25;;;0.94;100.00
47726;BME280;33483;48.294;16.388;2022-12-29T10:29:15;99761.19;;;0.99;100.00
47726;BME280;33483;48.294;16.388;2022-12-29T10:32:00;99752.38;;;1.04;100.00
47726;BME280;33483;48.294;16.388;2022-12-29T10:34:37;99756.00;;;1.10;100.00
47726;BME280;33483;48.294;16.388;2022-12-29T10:37:32;99760.13;;;1.05;100.00
47726;BME280;33483;48.294;16.388;2022-12-29T10:40:15;99749.94;;;1.15;100.00
47726;BME280;33483;48.294;16.388;2022-12-29T10:42:52;99752.94;;;1.17;100.00
47726;BME280;33483;48.294;16.388;2022-12-29T10:45:22;99758.25;;;1.30;100.00
47726;BME280;33483;48.294;16.388;2022-12-29T10:50:25;99762.88;;;1.56;100.00
47726;BME280;33483;48.294;16.388;2022-12-29T10:52:54;99761.06;;;1.53;100.00
47726;BME280;33483;48.294;16.388;2022-12-29T10:55:35;99766.63;;;1.59;100.00
47726;BME280;33483;48.294;16.388;2022-12-29T10:58:11;99757.84;;;1.64;100.00
47726;BME280;33483;48.294;16.388;2022-12-29T11:00:40;99754.19;;;1.67;100.00
47726;BME280;33483;48.294;16.388;2022-12-29T11:08:49;99746.19;;;1.54;100.00
47726;BME280;33483;48.294;16.388;2022-12-29T11:11:32;99746.78;;;1.58;100.00
47726;BME280;33483;48.294;16.388;2022-12-29T11:14:21;99743.72;;;1.65;100.00
47726;BME280;33483;48.294;16.388;2022-12-29T11:17:01;99743.44;;;1.54;100.00
47726;BME280;33483;48.294;16.388;2022-12-29T11:19:30;99744.06;;;1.49;100.00
47726;BME280;33483;48.294;16.388;2022-12-29T11:22:24;99745.78;;;1.38;100.00
47726;BME280;33483;48.294;16.388;2022-12-29T11:24:53;99741.09;;;1.29;100.00
47726;BME280;33483;48.294;16.388;2022-12-29T11:27:23;99736.53;;;1.35;100.00
47726;BME280;33483;48.294;16.388;2022-12-29T11:29:54;99734.09;;;1.37;100.00
47726;BME280;33483;48.294;16.388;2022-12-29T11:32:26;99733.03;;;1.44;100.00
47726;BME280;33483;48.294;16.388;2022-12-29T11:34:56;99730.44;;;1.40;100.00
47726;BME280;33483;48.294;16.388;2022-12-29T11:37:38;99721.06;;;1.41;100.00
47726;BME280;33483;48.294;16.388;2022-12-29T11:40:19;99729.63;;;1.58;100.00
47726;BME280;33483;48.294;16.388;2022-12-29T11:45:29;99720.75;;;1.72;100.00
47726;BME280;33483;48.294;16.388;2022-12-29T11:48:01;99718.38;;;1.65;100.00
47726;BME280;33483;48.294;16.388;2022-12-29T11:50:36;99720.28;;;1.73;100.00
47726;BME280;33483;48.294;16.388;2022-12-29T11:53:26;99717.22;;;1.80;100.00
47726;BME280;33483;48.294;16.388;2022-12-29T11:56:00;99717.78;;;1.93;100.00
47726;BME280;33483;48.294;16.388;2022-12-29T11:58:35;99724.56;;;1.98;100.00
47726;BME280;33483;48.294;16.388;2022-12-29T12:01:12;99723.09;;;2.11;100.00
47726;BME280;33483;48.294;16.388;2022-12-29T12:04:01;99723.88;;;2.12;100.00
47726;BME280;33483;48.294;16.388;2022-12-29T12:06:34;99717.31;;;1.95;100.00
47726;BME280;33483;48.294;16.388;2022-12-29T12:09:12;99712.66;;;1.86;100.00
47726;BME280;33483;48.294;16.388;2022-12-29T12:11:42;99714.28;;;1.93;100.00
47726;BME280;33483;48.294;16.388;2022-12-29T12:14:37;99706.53;;;1.91;100.00
47726;BME280;33483;48.294;16.388;2022-12-29T12:17:29;99708.50;;;1.91;100.00
47726;BME280;33483;48.294;16.388;2022-12-29T12:20:27;99700.19;;;1.85;100.00
47726;BME280;33483;48.294;16.388;2022-12-29T12:25:38;99707.53;;;1.79;100.00
47726;BME280;33483;48.294;16.388;2022-12-29T12:28:13;99699.78;;;1.78;100.00
47726;BME280;33483;48.294;16.388;2022-12-29T12:30:48;99699.63;;;1.81;100.00
47726;BME280;33483;48.294;16.388;2022-12-29T12:33:38;99703.56;;;1.80;100.00
47726;BME280;33483;48.294;16.388;2022-12-29T12:39:22;99692.59;;;1.89;100.00
47726;BME280;33483;48.294;16.388;2022-12-29T12:47:41;99683.28;;;1.96;100.00
47726;BME280;33483;48.294;16.388;2022-12-29T12:58:41;99693.56;;;2.01;100.00
47726;BME280;33483;48.294;16.388;2022-12-29T13:01:38;99680.31;;;2.08;100.00
47726;BME280;33483;48.294;16.388;2022-12-29T13:09:44;99689.94;;;2.18;100.00
47726;BME280;33483;48.294;16.388;2022-12-29T13:17:47;99673.81;;;2.59;100.00
47726;BME280;33483;48.294;16.388;2022-12-29T13:20:39;99681.22;;;2.82;100.00
47726;BME280;33483;48.294;16.388;2022-12-29T13:23:25;99691.59;;;2.92;100.00
47726;BME280;33483;48.294;16.388;2022-12-29T13:31:09;99684.78;;;2.73;100.00
47726;BME280;33483;48.294;16.388;2022-12-29T13:33:52;99677.78;;;2.72;100.00
47726;BME280;33483;48.294;16.388;2022-12-29T13:39:04;99684.59;;;2.77;100.00
47726;BME280;33483;48.294;16.388;2022-12-29T13:41:39;99677.78;;;2.72;100.00
47726;BME280;33483;48.294;16.388;2022-12-29T13:44:14;99688.84;;;2.78;100.00
47726;BME280;33483;48.294;16.388;2022-12-29T13:46:44;99687.63;;;2.79;100.00
47726;BME280;33483;48.294;16.388;2022-12-29T13:49:20;99694.97;;;2.73;100.00
47726;BME280;33483;48.294;16.388;2022-12-29T13:51:58;99693.94;;;2.85;100.00
47726;BME280;33483;48.294;16.388;2022-12-29T13:54:41;99702.63;;;2.83;100.00
47726;BME280;33483;48.294;16.388;2022-12-29T13:57:38;99692.34;;;2.78;100.00
47726;BME280;33483;48.294;16.388;2022-12-29T14:00:20;99687.59;;;2.64;100.00
47726;BME280;33483;48.294;16.388;2022-12-29T14:03:50;99690.41;;;2.55;100.00
47726;BME280;33483;48.294;16.388;2022-12-29T14:06:14;99692.75;;;2.48;100.00
47726;BME280;33483;48.294;16.388;2022-12-29T14:08:43;99694.94;;;2.44;100.00
47726;BME280;33483;48.294;16.388;2022-12-29T14:11:14;99690.41;;;2.41;100.00
47726;BME280;33483;48.294;16.388;2022-12-29T14:13:46;99689.06;;;2.36;100.00
47726;BME280;33483;48.294;16.388;2022-12-29T14:16:41;99685.47;;;2.30;100.00
47726;BME280;33483;48.294;16.388;2022-12-29T14:19:22;99689.00;;;2.21;100.00
47726;BME280;33483;48.294;16.388;2022-12-29T14:21:59;99692.97;;;2.20;100.00
47726;BME280;33483;48.294;16.388;2022-12-29T14:26:57;99690.44;;;2.17;100.00
47726;BME280;33483;48.294;16.388;2022-12-29T14:31:52;99688.81;;;2.10;100.00
47726;BME280;33483;48.294;16.388;2022-12-29T14:37:01;99689.91;;;2.04;100.00
47726;BME280;33483;48.294;16.388;2022-12-29T14:42:00;99694.97;;;1.96;100.00
47726;BME280;33483;48.294;16.388;2022-12-29T14:44:30;99688.44;;;1.94;100.00
47726;BME280;33483;48.294;16.388;2022-12-29T14:47:01;99696.53;;;1.88;100.00
47726;BME280;33483;48.294;16.388;2022-12-29T14:49:42;99701.38;;;1.93;100.00
47726;BME280;33483;48.294;16.388;2022-12-29T14:52:23;99705.78;;;1.91;100.00
47726;BME280;33483;48.294;16.388;2022-12-29T14:54:55;99693.19;;;1.93;100.00
47726;BME280;33483;48.294;16.388;2022-12-29T14:57:31;99694.69;;;1.94;100.00
47726;BME280;33483;48.294;16.388;2022-12-29T15:00:06;99696.66;;;1.94;100.00
47726;BME280;33483;48.294;16.388;2022-12-29T15:02:38;99704.53;;;1.92;100.00
47726;BME280;33483;48.294;16.388;2022-12-29T15:05:26;99708.63;;;1.96;100.00
47726;BME280;33483;48.294;16.388;2022-12-29T15:07:56;99705.78;;;1.91;100.00
47726;BME280;33483;48.294;16.388;2022-12-29T15:10:26;99707.63;;;1.85;100.00
47726;BME280;33483;48.294;16.388;2022-12-29T15:13:05;99703.78;;;1.68;100.00